sensor_id;sensor_type;location;lat;lon;timestamp;P1;durP1;ratioP1;P2;durP2;ratioP2
18322;SDS011;9287;49.456;11.064;2023-05-10T00:00:04;6.07;;;5.57;;
18322;SDS011;9287;49.456;11.064;2023-05-10T00:02:32;6.77;;;6.03;;
18322;SDS011;9287;49.456;11.064;2023-05-10T00:05:01;5.60;;;5.10;;
18322;SDS011;9287;49.456;11.064;2023-05-10T00:07:29;6.33;;;5.60;;
18322;SDS011;9287;49.456;11.064;2023-05-10T00:09:57;6.30;;;5.73;;
18322;SDS011;9287;49.456;11.064;2023-05-10T00:12:26;5.63;;;5.17;;
18322;SDS011;9287;49.456;11.064;2023-05-10T00:14:54;6.23;;;5.43;;
18322;SDS011;9287;49.456;11.064;2023-05-10T00:17:24;5.67;;;5.17;;
18322;SDS011;9287;49.456;11.064;2023-05-10T00:19:51;5.40;;;4.90;;
18322;SDS011;9287;49.456;11.064;2023-05-10T00:22:21;8.13;;;5.67;;
18322;SDS011;9287;49.456;11.064;2023-05-10T00:24:49;6.87;;;6.33;;
18322;SDS011;9287;49.456;11.064;2023-05-10T00:27:17;6.80;;;6.00;;
18322;SDS011;9287;49.456;11.064;2023-05-10T00:29:46;6.53;;;5.93;;
18322;SDS011;9287;49.456;11.064;2023-05-10T00:32:14;6.93;;;6.33;;
18322;SDS011;9287;49.456;11.064;2023-05-10T00:34:43;7.00;;;6.30;;
18322;SDS011;9287;49.456;11.064;2023-05-10T00:37:10;6.47;;;5.87;;
18322;SDS011;9287;49.456;11.064;2023-05-10T00:39:41;7.17;;;6.47;;
18322;SDS011;9287;49.456;11.064;2023-05-10T00:42:11;8.30;;;6.03;;
18322;SDS011;9287;49.456;11.064;2023-05-10T00:44:39;6.93;;;6.33;;
18322;SDS011;9287;49.456;11.064;2023-05-10T00:47:08;7.03;;;6.40;;
18322;SDS011;9287;49.456;11.064;2023-05-10T00:49:37;6.97;;;6.37;;
18322;SDS011;9287;49.456;11.064;2023-05-10T00:52:05;6.40;;;5.90;;
18322;SDS011;9287;49.456;11.064;2023-05-10T00:54:33;7.17;;;6.30;;
18322;SDS011;9287;49.456;11.064;2023-05-10T00:57:01;7.40;;;6.53;;
18322;SDS011;9287;49.456;11.064;2023-05-10T00:59:29;6.60;;;6.00;;
18322;SDS011;9287;49.456;11.064;2023-05-10T01:01:58;6.27;;;5.67;;
18322;SDS011;9287;49.456;11.064;2023-05-10T01:04:27;6.60;;;5.73;;
18322;SDS011;9287;49.456;11.064;2023-05-10T01:06:55;6.90;;;5.30;;
18322;SDS011;9287;49.456;11.064;2023-05-10T01:09:23;6.30;;;5.70;;
18322;SDS011;9287;49.456;11.064;2023-05-10T01:11:52;6.40;;;5.80;;
18322;SDS011;9287;49.456;11.064;2023-05-10T01:14:22;5.23;;;4.77;;
18322;SDS011;9287;49.456;11.064;2023-05-10T01:16:54;5.40;;;4.90;;
18322;SDS011;9287;49.456;11.064;2023-05-10T01:19:23;6.47;;;5.87;;
18322;SDS011;9287;49.456;11.064;2023-05-10T01:21:56;6.00;;;5.50;;
18322;SDS011;9287;49.456;11.064;2023-05-10T01:24:39;6.07;;;5.57;;
18322;SDS011;9287;49.456;11.064;2023-05-10T01:30:26;6.07;;;5.57;;
18322;SDS011;9287;49.456;11.064;2023-05-10T01:33:12;6.10;;;5.27;;
18322;SDS011;9287;49.456;11.064;2023-05-10T01:35:47;5.20;;;4.80;;
18322;SDS011;9287;49.456;11.064;2023-05-10T01:38:25;4.40;;;4.10;;
18322;SDS011;9287;49.456;11.064;2023-05-10T01:41:03;4.93;;;4.50;;
18322;SDS011;9287;49.456;11.064;2023-05-10T01:43:41;5.73;;;4.67;;
18322;SDS011;9287;49.456;11.064;2023-05-10T01:46:20;5.50;;;5.10;;
18322;SDS011;9287;49.456;11.064;2023-05-10T01:48:56;5.50;;;5.10;;
18322;SDS011;9287;49.456;11.064;2023-05-10T01:51:27;6.10;;;5.53;;
18322;SDS011;9287;49.456;11.064;2023-05-10T01:54:03;6.07;;;5.43;;
18322;SDS011;9287;49.456;11.064;2023-05-10T01:56:34;5.50;;;5.00;;
18322;SDS011;9287;49.456;11.064;2023-05-10T01:59:05;6.37;;;5.77;;
18322;SDS011;9287;49.456;11.064;2023-05-10T02:01:36;5.50;;;5.10;;
18322;SDS011;9287;49.456;11.064;2023-05-10T02:04:07;5.27;;;4.80;;
18322;SDS011;9287;49.456;11.064;2023-05-10T02:06:38;4.63;;;4.33;;
18322;SDS011;9287;49.456;11.064;2023-05-10T02:09:07;5.50;;;5.10;;
18322;SDS011;9287;49.456;11.064;2023-05-10T02:11:37;5.13;;;4.67;;
18322;SDS011;9287;49.456;11.064;2023-05-10T02:14:06;5.10;;;4.70;;
18322;SDS011;9287;49.456;11.064;2023-05-10T02:16:36;4.37;;;4.07;;
18322;SDS011;9287;49.456;11.064;2023-05-10T02:19:08;4.30;;;4.00;;
18322;SDS011;9287;49.456;11.064;2023-05-10T02:21:37;4.40;;;4.10;;
18322;SDS011;9287;49.456;11.064;2023-05-10T02:24:09;4.70;;;4.37;;
18322;SDS011;9287;49.456;11.064;2023-05-10T02:26:39;3.70;;;3.43;;
18322;SDS011;9287;49.456;11.064;2023-05-10T02:29:07;4.30;;;3.43;;
18322;SDS011;9287;49.456;11.064;2023-05-10T02:31:38;4.07;;;3.77;;
18322;SDS011;9287;49.456;11.064;2023-05-10T02:34:11;4.07;;;3.53;;
18322;SDS011;9287;49.456;11.064;2023-05-10T02:36:43;4.10;;;3.80;;
18322;SDS011;9287;49.456;11.064;2023-05-10T02:39:11;3.30;;;3.10;;
18322;SDS011;9287;49.456;11.064;2023-05-10T02:41:41;2.90;;;2.70;;
18322;SDS011;9287;49.456;11.064;2023-05-10T02:44:10;3.40;;;3.10;;
18322;SDS011;9287;49.456;11.064;2023-05-10T02:46:40;3.70;;;3.50;;
18322;SDS011;9287;49.456;11.064;2023-05-10T02:49:10;3.33;;;2.70;;
18322;SDS011;9287;49.456;11.064;2023-05-10T02:51:40;3.10;;;2.90;;
18322;SDS011;9287;49.456;11.064;2023-05-10T02:54:11;3.40;;;3.10;;
18322;SDS011;9287;49.456;11.064;2023-05-10T02:56:43;2.73;;;2.27;;
18322;SDS011;9287;49.456;11.064;2023-05-10T02:59:15;2.23;;;2.03;;
18322;SDS011;9287;49.456;11.064;2023-05-10T03:01:43;2.27;;;2.10;;
18322;SDS011;9287;49.456;11.064;2023-05-10T03:04:12;2.60;;;2.40;;
18322;SDS011;9287;49.456;11.064;2023-05-10T03:06:39;2.50;;;1.73;;
18322;SDS011;9287;49.456;11.064;2023-05-10T03:09:07;2.07;;;1.70;;
18322;SDS011;9287;49.456;11.064;2023-05-10T03:11:39;1.73;;;1.63;;
18322;SDS011;9287;49.456;11.064;2023-05-10T03:14:26;1.93;;;1.30;;
18322;SDS011;9287;49.456;11.064;2023-05-10T03:17:04;3.53;;;1.40;;
18322;SDS011;9287;49.456;11.064;2023-05-10T03:19:57;1.73;;;1.10;;
18322;SDS011;9287;49.456;11.064;2023-05-10T03:22:30;1.87;;;1.30;;
18322;SDS011;9287;49.456;11.064;2023-05-10T03:25:04;1.40;;;1.30;;
18322;SDS011;9287;49.456;11.064;2023-05-10T03:27:35;1.40;;;1.20;;
18322;SDS011;9287;49.456;11.064;2023-05-10T03:30:07;1.00;;;1.00;;
18322;SDS011;9287;49.456;11.064;2023-05-10T03:32:38;1.07;;;1.00;;
18322;SDS011;9287;49.456;11.064;2023-05-10T03:35:09;0.90;;;0.90;;
18322;SDS011;9287;49.456;11.064;2023-05-10T03:37:38;0.70;;;0.70;;
18322;SDS011;9287;49.456;11.064;2023-05-10T03:40:07;0.83;;;0.70;;
18322;SDS011;9287;49.456;11.064;2023-05-10T03:42:37;0.60;;;0.60;;
18322;SDS011;9287;49.456;11.064;2023-05-10T03:45:06;0.67;;;0.67;;
18322;SDS011;9287;49.456;11.064;2023-05-10T03:47:35;0.60;;;0.60;;
18322;SDS011;9287;49.456;11.064;2023-05-10T03:50:03;0.70;;;0.60;;
18322;SDS011;9287;49.456;11.064;2023-05-10T03:52:35;0.60;;;0.50;;
18322;SDS011;9287;49.456;11.064;2023-05-10T03:55:05;0.83;;;0.53;;
18322;SDS011;9287;49.456;11.064;2023-05-10T03:57:33;0.50;;;0.50;;
18322;SDS011;9287;49.456;11.064;2023-05-10T04:00:04;0.83;;;0.40;;
18322;SDS011;9287;49.456;11.064;2023-05-10T04:02:32;0.40;;;0.40;;
18322;SDS011;9287;49.456;11.064;2023-05-10T04:05:01;0.97;;;0.30;;
18322;SDS011;9287;49.456;11.064;2023-05-10T04:07:34;0.43;;;0.40;;
18322;SDS011;9287;49.456;11.064;2023-05-10T04:10:04;0.40;;;0.40;;
18322;SDS011;9287;49.456;11.064;2023-05-10T04:12:32;0.93;;;0.40;;
18322;SDS011;9287;49.456;11.064;2023-05-10T04:15:02;1.40;;;0.33;;
18322;SDS011;9287;49.456;11.064;2023-05-10T04:17:30;0.20;;;0.20;;
18322;SDS011;9287;49.456;11.064;2023-05-10T04:19:58;1.27;;;0.40;;
18322;SDS011;9287;49.456;11.064;2023-05-10T04:22:28;0.20;;;0.20;;
18322;SDS011;9287;49.456;11.064;2023-05-10T04:24:58;0.50;;;0.20;;
18322;SDS011;9287;49.456;11.064;2023-05-10T04:27:27;0.40;;;0.30;;
18322;SDS011;9287;49.456;11.064;2023-05-10T04:29:55;0.27;;;0.27;;
18322;SDS011;9287;49.456;11.064;2023-05-10T04:32:23;1.13;;;0.30;;
18322;SDS011;9287;49.456;11.064;2023-05-10T04:34:51;0.23;;;0.20;;
18322;SDS011;9287;49.456;11.064;2023-05-10T04:37:22;0.30;;;0.30;;
18322;SDS011;9287;49.456;11.064;2023-05-10T04:39:50;0.40;;;0.20;;
18322;SDS011;9287;49.456;11.064;2023-05-10T04:42:20;0.60;;;0.30;;
18322;SDS011;9287;49.456;11.064;2023-05-10T04:44:50;0.73;;;0.30;;
18322;SDS011;9287;49.456;11.064;2023-05-10T04:47:18;1.03;;;0.30;;
18322;SDS011;9287;49.456;11.064;2023-05-10T04:49:46;0.30;;;0.30;;
18322;SDS011;9287;49.456;11.064;2023-05-10T04:52:14;0.30;;;0.30;;
18322;SDS011;9287;49.456;11.064;2023-05-10T04:54:43;0.40;;;0.20;;
18322;SDS011;9287;49.456;11.064;2023-05-10T04:57:12;0.70;;;0.20;;
18322;SDS011;9287;49.456;11.064;2023-05-10T04:59:44;1.03;;;0.40;;
18322;SDS011;9287;49.456;11.064;2023-05-10T05:02:15;0.20;;;0.20;;
18322;SDS011;9287;49.456;11.064;2023-05-10T05:04:43;0.30;;;0.30;;
18322;SDS011;9287;49.456;11.064;2023-05-10T05:07:12;0.20;;;0.20;;
18322;SDS011;9287;49.456;11.064;2023-05-10T05:09:42;0.73;;;0.30;;
18322;SDS011;9287;49.456;11.064;2023-05-10T05:12:10;1.53;;;0.33;;
18322;SDS011;9287;49.456;11.064;2023-05-10T05:14:42;0.83;;;0.30;;
18322;SDS011;9287;49.456;11.064;2023-05-10T05:17:11;0.20;;;0.20;;
18322;SDS011;9287;49.456;11.064;2023-05-10T05:19:42;1.53;;;0.30;;
18322;SDS011;9287;49.456;11.064;2023-05-10T05:22:10;0.30;;;0.30;;
18322;SDS011;9287;49.456;11.064;2023-05-10T05:24:40;0.77;;;0.33;;
18322;SDS011;9287;49.456;11.064;2023-05-10T05:27:10;0.40;;;0.40;;
18322;SDS011;9287;49.456;11.064;2023-05-10T05:29:38;0.47;;;0.40;;
18322;SDS011;9287;49.456;11.064;2023-05-10T05:32:08;1.33;;;0.50;;
18322;SDS011;9287;49.456;11.064;2023-05-10T05:34:37;0.40;;;0.40;;
18322;SDS011;9287;49.456;11.064;2023-05-10T05:37:05;1.50;;;0.40;;
18322;SDS011;9287;49.456;11.064;2023-05-10T05:39:33;0.50;;;0.50;;
18322;SDS011;9287;49.456;11.064;2023-05-10T05:42:03;0.93;;;0.40;;
18322;SDS011;9287;49.456;11.064;2023-05-10T05:44:34;1.33;;;0.40;;
18322;SDS011;9287;49.456;11.064;2023-05-10T05:47:02;0.33;;;0.33;;
18322;SDS011;9287;49.456;11.064;2023-05-10T05:49:31;0.40;;;0.40;;
18322;SDS011;9287;49.456;11.064;2023-05-10T05:51:59;1.03;;;0.30;;
18322;SDS011;9287;49.456;11.064;2023-05-10T05:54:28;1.37;;;0.50;;
18322;SDS011;9287;49.456;11.064;2023-05-10T05:56:57;0.40;;;0.40;;
18322;SDS011;9287;49.456;11.064;2023-05-10T05:59:26;1.17;;;0.30;;
18322;SDS011;9287;49.456;11.064;2023-05-10T06:01:55;0.40;;;0.40;;
18322;SDS011;9287;49.456;11.064;2023-05-10T06:04:23;2.10;;;0.50;;
18322;SDS011;9287;49.456;11.064;2023-05-10T06:06:52;2.33;;;0.57;;
18322;SDS011;9287;49.456;11.064;2023-05-10T06:09:20;0.50;;;0.50;;
18322;SDS011;9287;49.456;11.064;2023-05-10T06:11:50;0.53;;;0.50;;
18322;SDS011;9287;49.456;11.064;2023-05-10T06:14:19;0.50;;;0.50;;
18322;SDS011;9287;49.456;11.064;2023-05-10T06:16:48;0.97;;;0.60;;
18322;SDS011;9287;49.456;11.064;2023-05-10T06:19:16;0.70;;;0.70;;
18322;SDS011;9287;49.456;11.064;2023-05-10T06:21:44;1.57;;;0.77;;
18322;SDS011;9287;49.456;11.064;2023-05-10T06:24:13;0.70;;;0.70;;
18322;SDS011;9287;49.456;11.064;2023-05-10T06:26:41;0.80;;;0.70;;
18322;SDS011;9287;49.456;11.064;2023-05-10T06:29:09;0.67;;;0.60;;
18322;SDS011;9287;49.456;11.064;2023-05-10T06:31:37;0.90;;;0.60;;
18322;SDS011;9287;49.456;11.064;2023-05-10T06:34:04;0.90;;;0.50;;
18322;SDS011;9287;49.456;11.064;2023-05-10T06:36:34;0.50;;;0.50;;
18322;SDS011;9287;49.456;11.064;2023-05-10T06:39:02;0.93;;;0.47;;
18322;SDS011;9287;49.456;11.064;2023-05-10T06:41:32;1.17;;;0.60;;
18322;SDS011;9287;49.456;11.064;2023-05-10T06:43:59;1.93;;;0.50;;
18322;SDS011;9287;49.456;11.064;2023-05-10T06:46:27;0.60;;;0.60;;
18322;SDS011;9287;49.456;11.064;2023-05-10T06:48:55;0.77;;;0.50;;
18322;SDS011;9287;49.456;11.064;2023-05-10T06:51:23;0.50;;;0.50;;
18322;SDS011;9287;49.456;11.064;2023-05-10T06:53:51;0.50;;;0.50;;
18322;SDS011;9287;49.456;11.064;2023-05-10T06:56:19;2.07;;;0.60;;
18322;SDS011;9287;49.456;11.064;2023-05-10T06:58:49;0.63;;;0.63;;
18322;SDS011;9287;49.456;11.064;2023-05-10T07:01:17;1.90;;;0.50;;
18322;SDS011;9287;49.456;11.064;2023-05-10T07:03:44;0.87;;;0.70;;
18322;SDS011;9287;49.456;11.064;2023-05-10T07:06:12;0.93;;;0.60;;
18322;SDS011;9287;49.456;11.064;2023-05-10T07:08:58;1.53;;;0.63;;
18322;SDS011;9287;49.456;11.064;2023-05-10T07:11:26;0.60;;;0.50;;
18322;SDS011;9287;49.456;11.064;2023-05-10T07:13:56;1.37;;;0.50;;
18322;SDS011;9287;49.456;11.064;2023-05-10T07:16:24;0.80;;;0.50;;
18322;SDS011;9287;49.456;11.064;2023-05-10T07:18:52;0.50;;;0.50;;
18322;SDS011;9287;49.456;11.064;2023-05-10T07:21:19;0.77;;;0.60;;
18322;SDS011;9287;49.456;11.064;2023-05-10T07:23:50;0.70;;;0.60;;
18322;SDS011;9287;49.456;11.064;2023-05-10T07:26:18;0.50;;;0.50;;
18322;SDS011;9287;49.456;11.064;2023-05-10T07:28:47;1.40;;;0.70;;
18322;SDS011;9287;49.456;11.064;2023-05-10T07:31:16;1.00;;;0.80;;
18322;SDS011;9287;49.456;11.064;2023-05-10T07:33:43;1.70;;;0.50;;
18322;SDS011;9287;49.456;11.064;2023-05-10T07:36:12;1.30;;;1.00;;
18322;SDS011;9287;49.456;11.064;2023-05-10T07:38:40;0.80;;;0.60;;
18322;SDS011;9287;49.456;11.064;2023-05-10T07:41:08;3.13;;;0.90;;
18322;SDS011;9287;49.456;11.064;2023-05-10T07:43:41;0.50;;;0.50;;
18322;SDS011;9287;49.456;11.064;2023-05-10T07:46:09;1.33;;;0.80;;
18322;SDS011;9287;49.456;11.064;2023-05-10T07:48:38;2.00;;;0.90;;
18322;SDS011;9287;49.456;11.064;2023-05-10T07:51:06;0.70;;;0.70;;
18322;SDS011;9287;49.456;11.064;2023-05-10T07:53:35;1.37;;;0.60;;
18322;SDS011;9287;49.456;11.064;2023-05-10T07:58:49;0.50;;;0.50;;
18322;SDS011;9287;49.456;11.064;2023-05-10T08:01:18;0.70;;;0.50;;
18322;SDS011;9287;49.456;11.064;2023-05-10T08:03:47;0.67;;;0.67;;
18322;SDS011;9287;49.456;11.064;2023-05-10T08:06:16;0.77;;;0.60;;
18322;SDS011;9287;49.456;11.064;2023-05-10T08:08:45;0.50;;;0.50;;
18322;SDS011;9287;49.456;11.064;2023-05-10T08:11:15;0.67;;;0.67;;
18322;SDS011;9287;49.456;11.064;2023-05-10T08:13:44;1.33;;;0.70;;
18322;SDS011;9287;49.456;11.064;2023-05-10T08:16:12;0.50;;;0.50;;
18322;SDS011;9287;49.456;11.064;2023-05-10T08:18:40;0.90;;;0.70;;
18322;SDS011;9287;49.456;11.064;2023-05-10T08:21:10;0.60;;;0.60;;
18322;SDS011;9287;49.456;11.064;2023-05-10T08:23:38;1.03;;;0.93;;
18322;SDS011;9287;49.456;11.064;2023-05-10T08:26:06;0.73;;;0.70;;
18322;SDS011;9287;49.456;11.064;2023-05-10T08:28:34;1.00;;;0.90;;
18322;SDS011;9287;49.456;11.064;2023-05-10T08:31:01;1.70;;;0.50;;
18322;SDS011;9287;49.456;11.064;2023-05-10T08:33:29;1.90;;;1.00;;
18322;SDS011;9287;49.456;11.064;2023-05-10T08:35:57;2.60;;;0.70;;
18322;SDS011;9287;49.456;11.064;2023-05-10T08:38:26;0.70;;;0.70;;
18322;SDS011;9287;49.456;11.064;2023-05-10T08:40:55;0.77;;;0.70;;
18322;SDS011;9287;49.456;11.064;2023-05-10T08:43:26;0.93;;;0.70;;
18322;SDS011;9287;49.456;11.064;2023-05-10T08:45:55;0.60;;;0.60;;
18322;SDS011;9287;49.456;11.064;2023-05-10T08:48:27;1.10;;;0.70;;
18322;SDS011;9287;49.456;11.064;2023-05-10T08:50:57;0.80;;;0.80;;
18322;SDS011;9287;49.456;11.064;2023-05-10T08:53:30;1.70;;;0.70;;
18322;SDS011;9287;49.456;11.064;2023-05-10T08:56:01;0.57;;;0.57;;
18322;SDS011;9287;49.456;11.064;2023-05-10T08:58:29;1.73;;;0.70;;
18322;SDS011;9287;49.456;11.064;2023-05-10T09:00:58;0.77;;;0.60;;
18322;SDS011;9287;49.456;11.064;2023-05-10T09:03:28;1.90;;;0.90;;
18322;SDS011;9287;49.456;11.064;2023-05-10T09:05:57;1.60;;;1.10;;
18322;SDS011;9287;49.456;11.064;2023-05-10T09:08:25;1.30;;;1.20;;
18322;SDS011;9287;49.456;11.064;2023-05-10T09:10:55;2.77;;;1.50;;
18322;SDS011;9287;49.456;11.064;2023-05-10T09:13:23;1.90;;;1.40;;
18322;SDS011;9287;49.456;11.064;2023-05-10T09:15:52;1.77;;;1.30;;
18322;SDS011;9287;49.456;11.064;2023-05-10T09:18:20;5.10;;;1.60;;
18322;SDS011;9287;49.456;11.064;2023-05-10T09:20:48;3.30;;;1.43;;
18322;SDS011;9287;49.456;11.064;2023-05-10T09:23:16;4.17;;;1.93;;
18322;SDS011;9287;49.456;11.064;2023-05-10T09:25:44;4.13;;;1.73;;
18322;SDS011;9287;49.456;11.064;2023-05-10T09:28:13;3.07;;;1.80;;
18322;SDS011;9287;49.456;11.064;2023-05-10T09:30:41;2.60;;;1.90;;
18322;SDS011;9287;49.456;11.064;2023-05-10T09:33:09;1.87;;;1.67;;
18322;SDS011;9287;49.456;11.064;2023-05-10T09:35:36;2.27;;;2.00;;
18322;SDS011;9287;49.456;11.064;2023-05-10T09:38:06;1.93;;;1.30;;
18322;SDS011;9287;49.456;11.064;2023-05-10T09:40:34;2.57;;;2.37;;
18322;SDS011;9287;49.456;11.064;2023-05-10T09:43:02;2.57;;;2.20;;
18322;SDS011;9287;49.456;11.064;2023-05-10T09:45:37;5.47;;;1.90;;
18322;SDS011;9287;49.456;11.064;2023-05-10T09:48:05;1.83;;;1.40;;
18322;SDS011;9287;49.456;11.064;2023-05-10T09:50:33;2.10;;;1.90;;
18322;SDS011;9287;49.456;11.064;2023-05-10T09:53:01;2.33;;;1.77;;
18322;SDS011;9287;49.456;11.064;2023-05-10T09:55:38;3.53;;;1.20;;
18322;SDS011;9287;49.456;11.064;2023-05-10T09:58:07;2.25;;;1.52;;
18322;SDS011;9287;49.456;11.064;2023-05-10T10:00:39;1.60;;;1.23;;
18322;SDS011;9287;49.456;11.064;2023-05-10T10:03:11;1.85;;;1.48;;
18322;SDS011;9287;49.456;11.064;2023-05-10T10:05:41;3.03;;;1.10;;
18322;SDS011;9287;49.456;11.064;2023-05-10T10:08:10;1.20;;;1.10;;
18322;SDS011;9287;49.456;11.064;2023-05-10T10:10:39;1.67;;;1.17;;
18322;SDS011;9287;49.456;11.064;2023-05-10T10:13:11;2.90;;;0.90;;
18322;SDS011;9287;49.456;11.064;2023-05-10T10:15:42;1.67;;;1.02;;
18322;SDS011;9287;49.456;11.064;2023-05-10T10:18:15;2.80;;;0.90;;
18322;SDS011;9287;49.456;11.064;2023-05-10T10:20:45;3.40;;;0.90;;
18322;SDS011;9287;49.456;11.064;2023-05-10T10:23:17;1.05;;;0.70;;
18322;SDS011;9287;49.456;11.064;2023-05-10T10:25:45;2.85;;;0.60;;
18322;SDS011;9287;49.456;11.064;2023-05-10T10:28:19;4.30;;;1.02;;
18322;SDS011;9287;49.456;11.064;2023-05-10T10:30:56;2.33;;;0.70;;
18322;SDS011;9287;49.456;11.064;2023-05-10T10:33:39;0.85;;;0.60;;
18322;SDS011;9287;49.456;11.064;2023-05-10T10:36:16;1.13;;;0.50;;
18322;SDS011;9287;49.456;11.064;2023-05-10T10:38:54;1.02;;;0.70;;
18322;SDS011;9287;49.456;11.064;2023-05-10T10:41:29;0.70;;;0.50;;
18322;SDS011;9287;49.456;11.064;2023-05-10T10:47:07;1.60;;;1.40;;
18322;SDS011;9287;49.456;11.064;2023-05-10T10:49:51;1.00;;;0.70;;
18322;SDS011;9287;49.456;11.064;2023-05-10T10:55:10;1.73;;;0.93;;
18322;SDS011;9287;49.456;11.064;2023-05-10T10:57:45;1.90;;;0.90;;
18322;SDS011;9287;49.456;11.064;2023-05-10T11:00:25;2.17;;;0.73;;
18322;SDS011;9287;49.456;11.064;2023-05-10T11:03:03;2.53;;;0.90;;
18322;SDS011;9287;49.456;11.064;2023-05-10T11:05:36;1.63;;;1.20;;
18322;SDS011;9287;49.456;11.064;2023-05-10T11:08:12;1.13;;;1.03;;
18322;SDS011;9287;49.456;11.064;2023-05-10T11:10:51;1.37;;;0.77;;
18322;SDS011;9287;49.456;11.064;2023-05-10T11:13:41;1.27;;;1.17;;
18322;SDS011;9287;49.456;11.064;2023-05-10T11:16:20;2.33;;;1.20;;
18322;SDS011;9287;49.456;11.064;2023-05-10T11:18:58;1.70;;;0.83;;
18322;SDS011;9287;49.456;11.064;2023-05-10T11:21:44;2.47;;;2.27;;
18322;SDS011;9287;49.456;11.064;2023-05-10T11:24:19;0.93;;;0.80;;
18322;SDS011;9287;49.456;11.064;2023-05-10T11:26:50;1.23;;;1.00;;
18322;SDS011;9287;49.456;11.064;2023-05-10T11:29:22;1.10;;;1.00;;
18322;SDS011;9287;49.456;11.064;2023-05-10T11:31:52;0.90;;;0.80;;
18322;SDS011;9287;49.456;11.064;2023-05-10T11:34:30;1.10;;;0.80;;
18322;SDS011;9287;49.456;11.064;2023-05-10T11:37:01;1.23;;;1.03;;
18322;SDS011;9287;49.456;11.064;2023-05-10T11:39:30;0.70;;;0.70;;
18322;SDS011;9287;49.456;11.064;2023-05-10T11:41:59;0.60;;;0.60;;
18322;SDS011;9287;49.456;11.064;2023-05-10T11:44:29;0.80;;;0.80;;
18322;SDS011;9287;49.456;11.064;2023-05-10T11:47:03;0.80;;;0.80;;
18322;SDS011;9287;49.456;11.064;2023-05-10T11:49:36;2.10;;;0.83;;
18322;SDS011;9287;49.456;11.064;2023-05-10T11:52:04;0.98;;;0.80;;
18322;SDS011;9287;49.456;11.064;2023-05-10T11:54:33;1.15;;;0.80;;
18322;SDS011;9287;49.456;11.064;2023-05-10T11:57:02;1.27;;;0.80;;
18322;SDS011;9287;49.456;11.064;2023-05-10T11:59:30;1.75;;;0.93;;
18322;SDS011;9287;49.456;11.064;2023-05-10T12:01:58;2.67;;;0.80;;
18322;SDS011;9287;49.456;11.064;2023-05-10T12:04:26;1.25;;;1.15;;
18322;SDS011;9287;49.456;11.064;2023-05-10T12:06:57;1.27;;;0.90;;
18322;SDS011;9287;49.456;11.064;2023-05-10T12:09:25;2.15;;;1.10;;
18322;SDS011;9287;49.456;11.064;2023-05-10T12:12:08;3.50;;;1.10;;
18322;SDS011;9287;49.456;11.064;2023-05-10T12:14:36;0.80;;;0.80;;
18322;SDS011;9287;49.456;11.064;2023-05-10T12:17:11;1.77;;;0.80;;
18322;SDS011;9287;49.456;11.064;2023-05-10T12:19:48;1.48;;;0.88;;
18322;SDS011;9287;49.456;11.064;2023-05-10T12:22:21;1.87;;;1.10;;
18322;SDS011;9287;49.456;11.064;2023-05-10T12:24:50;0.70;;;0.70;;
18322;SDS011;9287;49.456;11.064;2023-05-10T12:27:31;1.10;;;1.00;;
18322;SDS011;9287;49.456;11.064;2023-05-10T12:29:59;1.13;;;1.07;;
18322;SDS011;9287;49.456;11.064;2023-05-10T12:32:37;0.90;;;0.80;;
18322;SDS011;9287;49.456;11.064;2023-05-10T12:35:05;1.67;;;1.17;;
18322;SDS011;9287;49.456;11.064;2023-05-10T12:37:39;1.10;;;1.00;;
18322;SDS011;9287;49.456;11.064;2023-05-10T12:40:10;1.50;;;1.13;;
18322;SDS011;9287;49.456;11.064;2023-05-10T12:42:39;1.10;;;1.00;;
18322;SDS011;9287;49.456;11.064;2023-05-10T12:45:08;0.53;;;0.53;;
18322;SDS011;9287;49.456;11.064;2023-05-10T12:47:36;1.43;;;0.70;;
18322;SDS011;9287;49.456;11.064;2023-05-10T12:50:08;1.60;;;0.77;;
18322;SDS011;9287;49.456;11.064;2023-05-10T12:52:38;2.17;;;0.70;;
18322;SDS011;9287;49.456;11.064;2023-05-10T12:55:10;1.83;;;0.53;;
18322;SDS011;9287;49.456;11.064;2023-05-10T12:57:38;1.25;;;0.70;;
18322;SDS011;9287;49.456;11.064;2023-05-10T13:00:06;0.60;;;0.50;;
18322;SDS011;9287;49.456;11.064;2023-05-10T13:02:35;0.70;;;0.70;;
18322;SDS011;9287;49.456;11.064;2023-05-10T13:05:04;1.10;;;0.67;;
18322;SDS011;9287;49.456;11.064;2023-05-10T13:07:33;1.60;;;0.60;;
18322;SDS011;9287;49.456;11.064;2023-05-10T13:10:02;1.47;;;0.80;;
18322;SDS011;9287;49.456;11.064;2023-05-10T13:12:31;0.80;;;0.70;;
18322;SDS011;9287;49.456;11.064;2023-05-10T13:15:00;1.55;;;0.60;;
18322;SDS011;9287;49.456;11.064;2023-05-10T13:17:27;0.70;;;0.70;;
18322;SDS011;9287;49.456;11.064;2023-05-10T13:19:57;0.90;;;0.80;;
18322;SDS011;9287;49.456;11.064;2023-05-10T13:22:25;0.85;;;0.85;;
18322;SDS011;9287;49.456;11.064;2023-05-10T13:25:07;1.02;;;0.70;;
18322;SDS011;9287;49.456;11.064;2023-05-10T13:27:35;1.00;;;0.60;;
18322;SDS011;9287;49.456;11.064;2023-05-10T13:30:04;2.15;;;0.80;;
18322;SDS011;9287;49.456;11.064;2023-05-10T13:32:32;0.85;;;0.50;;
18322;SDS011;9287;49.456;11.064;2023-05-10T13:35:01;0.45;;;0.40;;
18322;SDS011;9287;49.456;11.064;2023-05-10T13:37:30;0.45;;;0.40;;
18322;SDS011;9287;49.456;11.064;2023-05-10T13:39:58;2.60;;;0.50;;
18322;SDS011;9287;49.456;11.064;2023-05-10T13:42:31;1.30;;;0.50;;
18322;SDS011;9287;49.456;11.064;2023-05-10T13:44:59;1.50;;;0.50;;
18322;SDS011;9287;49.456;11.064;2023-05-10T13:55:33;1.40;;;0.60;;
18322;SDS011;9287;49.456;11.064;2023-05-10T13:58:39;1.05;;;0.60;;
18322;SDS011;9287;49.456;11.064;2023-05-10T14:01:21;1.30;;;0.57;;
18322;SDS011;9287;49.456;11.064;2023-05-10T14:04:30;1.00;;;0.75;;
18322;SDS011;9287;49.456;11.064;2023-05-10T14:10:47;2.45;;;0.75;;
18322;SDS011;9287;49.456;11.064;2023-05-10T14:16:50;0.47;;;0.40;;
18322;SDS011;9287;49.456;11.064;2023-05-10T14:19:18;0.40;;;0.40;;
18322;SDS011;9287;49.456;11.064;2023-05-10T14:21:48;0.50;;;0.50;;
18322;SDS011;9287;49.456;11.064;2023-05-10T14:24:16;0.80;;;0.70;;
18322;SDS011;9287;49.456;11.064;2023-05-10T14:26:43;0.57;;;0.57;;
18322;SDS011;9287;49.456;11.064;2023-05-10T14:29:14;0.60;;;0.50;;
18322;SDS011;9287;49.456;11.064;2023-05-10T14:31:41;0.50;;;0.50;;
18322;SDS011;9287;49.456;11.064;2023-05-10T14:34:09;0.85;;;0.60;;
18322;SDS011;9287;49.456;11.064;2023-05-10T14:36:37;2.05;;;0.55;;
18322;SDS011;9287;49.456;11.064;2023-05-10T14:39:05;0.60;;;0.60;;
18322;SDS011;9287;49.456;11.064;2023-05-10T14:41:34;0.65;;;0.52;;
18322;SDS011;9287;49.456;11.064;2023-05-10T14:44:01;1.75;;;0.60;;
18322;SDS011;9287;49.456;11.064;2023-05-10T14:46:31;1.15;;;0.57;;
18322;SDS011;9287;49.456;11.064;2023-05-10T14:49:01;0.80;;;0.55;;
18322;SDS011;9287;49.456;11.064;2023-05-10T14:51:29;1.83;;;0.60;;
18322;SDS011;9287;49.456;11.064;2023-05-10T14:53:58;0.80;;;0.80;;
18322;SDS011;9287;49.456;11.064;2023-05-10T14:56:27;0.85;;;0.60;;
18322;SDS011;9287;49.456;11.064;2023-05-10T14:58:55;1.30;;;1.20;;
18322;SDS011;9287;49.456;11.064;2023-05-10T15:01:23;1.15;;;0.70;;
18322;SDS011;9287;49.456;11.064;2023-05-10T15:03:53;2.45;;;1.20;;
18322;SDS011;9287;49.456;11.064;2023-05-10T15:06:25;0.60;;;0.60;;
18322;SDS011;9287;49.456;11.064;2023-05-10T15:09:00;1.83;;;0.70;;
18322;SDS011;9287;49.456;11.064;2023-05-10T15:11:29;0.68;;;0.68;;
18322;SDS011;9287;49.456;11.064;2023-05-10T15:13:57;1.55;;;0.70;;
18322;SDS011;9287;49.456;11.064;2023-05-10T15:16:25;0.63;;;0.60;;
18322;SDS011;9287;49.456;11.064;2023-05-10T15:18:55;1.47;;;0.60;;
18322;SDS011;9287;49.456;11.064;2023-05-10T15:21:23;1.13;;;0.50;;
18322;SDS011;9287;49.456;11.064;2023-05-10T15:23:51;0.40;;;0.40;;
18322;SDS011;9287;49.456;11.064;2023-05-10T15:26:19;0.50;;;0.30;;
18322;SDS011;9287;49.456;11.064;2023-05-10T15:28:48;0.30;;;0.30;;
18322;SDS011;9287;49.456;11.064;2023-05-10T15:31:16;0.60;;;0.60;;
18322;SDS011;9287;49.456;11.064;2023-05-10T15:33:44;1.63;;;1.10;;